»·PEaware :: DAL2841 KSLC-KPDX

DAL2841 :: KSLC-KPDX

FLIGHT INFORMATION

Flight Status: Arrived
Operator:
Delta Air Lines
More flights by this operator :: More flights under this callsign
Pilot: Joe P. (13940)
Aircraft: BOEING 737-700
(B737)
More flights by this aircraft type
Origin: KSLC Salt Lake City Intl
United States
Destination: KPDX Portland Intl
United States
More flights between these airports :: More routes between these airports
Route: CGULL1 TWF J15 BOI J163 BKE JOTBA HHOOD4
File this flight plan on PilotEdge
Remarks: KSEA -PBN / A1B1C1D1L1O1S1 NAV / RNVD1E2A1 DOF / 180810 REG / N389DA EET / KZSE0054 RVR / 200 PER / C
Altitude:
(Current/Filed)
360ft
Speed:
(Current/Filed)
456kts
Departed: 09-Aug-18 06:45 PM
Arrived: 09-Aug-18 08:12 PM
Distance/Time
Traveled:
546nm/1:27
Distance/Time
To Go:
Arrived

Flight Plot

Page will automatically refresh every two minutes.

Flight plan parsing failed; only flown route is shown


Map Options




Map Legend


Flown Route
Filed Route
Departure Airport
Arrival Airport
Navaid (VOR, NDB)
Fix

Horizontal Profiles

Position Reports

Time Latitude Longitude Heading Altitude Ground
Speed
09-Aug-18 17:53 40.789075 -111.985536 130 4235ft 0kts
09-Aug-18 17:54 40.789075 -111.985536 130 4235ft 0kts
09-Aug-18 17:55 40.789075 -111.985536 130 4235ft 0kts
09-Aug-18 17:56 40.789075 -111.985536 130 4235ft 0kts
09-Aug-18 17:57 40.789075 -111.985536 130 4235ft 0kts
09-Aug-18 17:58 40.789075 -111.985536 130 4235ft 0kts
09-Aug-18 17:59 40.789075 -111.985536 130 4235ft 0kts
09-Aug-18 18:00 40.789075 -111.985536 130 4235ft 0kts
09-Aug-18 18:01 40.789075 -111.985536 130 4235ft 0kts
09-Aug-18 18:02 40.789075 -111.985536 130 4235ft 0kts
09-Aug-18 18:03 40.789075 -111.985536 130 4235ft 0kts
09-Aug-18 18:04 40.789075 -111.985536 130 4235ft 0kts
09-Aug-18 18:05 40.789075 -111.985536 130 4235ft 0kts
09-Aug-18 18:06 40.789075 -111.985536 130 4235ft 0kts
09-Aug-18 18:07 40.789075 -111.985536 130 4235ft 0kts
09-Aug-18 18:08 40.789075 -111.985536 130 4235ft 0kts
09-Aug-18 18:09 40.789075 -111.985536 130 4235ft 0kts
09-Aug-18 18:10 40.789075 -111.985536 130 4235ft 0kts
09-Aug-18 18:11 40.789075 -111.985536 130 4235ft 0kts
09-Aug-18 18:12 40.789075 -111.985536 130 4235ft 0kts
09-Aug-18 18:13 40.789075 -111.985536 130 4235ft 0kts
09-Aug-18 18:14 40.789075 -111.985536 130 4235ft 0kts
09-Aug-18 18:15 40.789075 -111.985536 130 4235ft 0kts
09-Aug-18 18:16 40.789075 -111.985536 130 4235ft 0kts
09-Aug-18 18:17 40.789075 -111.985536 130 4235ft 0kts
09-Aug-18 18:18 40.789075 -111.985536 130 4235ft 0kts
09-Aug-18 18:19 40.789075 -111.985536 130 4235ft 0kts
09-Aug-18 18:20 40.789075 -111.985536 130 4235ft 0kts
09-Aug-18 18:21 40.789075 -111.985536 130 4235ft 0kts
09-Aug-18 18:22 40.789075 -111.985536 130 4235ft 0kts
09-Aug-18 18:23 40.789075 -111.985536 130 4235ft 0kts
09-Aug-18 18:24 40.789075 -111.985536 130 4235ft 0kts
09-Aug-18 18:25 40.789075 -111.985536 130 4235ft 0kts
09-Aug-18 18:26 40.789075 -111.985536 130 4235ft 0kts
09-Aug-18 18:27 40.789075 -111.985536 130 4235ft 0kts
09-Aug-18 18:28 40.789075 -111.985536 130 4235ft 0kts
09-Aug-18 18:29 40.789075 -111.985536 130 4235ft 0kts
09-Aug-18 18:30 40.789075 -111.985536 130 4235ft 0kts
09-Aug-18 18:31 40.789075 -111.985536 130 4235ft 0kts
09-Aug-18 18:32 40.789075 -111.985536 130 4235ft 0kts
09-Aug-18 18:33 40.789408 -111.985986 143 4235ft 2kts
09-Aug-18 18:34 40.789827 -111.985926 238 4235ft 0kts
09-Aug-18 18:35 40.789827 -111.985926 238 4235ft 0kts
09-Aug-18 18:36 40.789827 -111.985926 238 4235ft 0kts
09-Aug-18 18:37 40.789826 -111.985927 238 4235ft 0kts
09-Aug-18 18:38 40.790759 -111.987033 354 4235ft 13kts
09-Aug-18 18:39 40.791100 -111.992744 262 4235ft 16kts
09-Aug-18 18:40 40.789344 -111.994968 174 4235ft 17kts
09-Aug-18 18:41 40.783803 -111.994338 178 4235ft 20kts
09-Aug-18 18:42 40.778454 -111.994213 173 4235ft 18kts
09-Aug-18 18:43 40.775400 -111.994097 237 4235ft 0kts
09-Aug-18 18:44 40.775396 -111.994106 237 4235ft 0kts
09-Aug-18 18:45 40.775626 -111.995592 356 4235ft 5kts
09-Aug-18 18:46 40.794308 -111.997759 356 4248ft 172kts
09-Aug-18 18:47 40.841476 -112.017440 332 6525ft 207kts
09-Aug-18 18:48 40.879629 -112.088287 296 7893ft 268kts
09-Aug-18 18:49 40.919939 -112.172666 305 10532ft 274kts
09-Aug-18 18:50 40.966440 -112.254787 308 13457ft 286kts
09-Aug-18 18:51 41.019976 -112.335810 313 16257ft 298kts
09-Aug-18 18:52 41.078772 -112.419670 313 18170ft 337kts
09-Aug-18 18:53 41.148415 -112.519525 313 18943ft 399kts
09-Aug-18 18:54 41.225936 -112.631040 313 20632ft 417kts
09-Aug-18 18:55 41.306048 -112.745766 313 22388ft 428kts
09-Aug-18 18:56 41.387688 -112.863580 313 23952ft 439kts
09-Aug-18 18:57 41.471252 -112.984820 313 25388ft 448kts
09-Aug-18 18:58 41.556175 -113.108580 313 26705ft 457kts
09-Aug-18 18:59 41.642820 -113.235405 313 27909ft 465kts
09-Aug-18 19:00 41.730624 -113.364487 313 28992ft 473kts
09-Aug-18 19:01 41.819520 -113.495753 313 30245ft 475kts
09-Aug-18 19:02 41.907828 -113.626728 314 31743ft 471kts
09-Aug-18 19:03 41.995162 -113.756829 314 33225ft 466kts
09-Aug-18 19:04 42.081212 -113.885567 314 34628ft 461kts
09-Aug-18 19:05 42.166417 -114.013597 313 35938ft 457kts
09-Aug-18 19:06 42.251623 -114.142177 313 36135ft 458kts
09-Aug-18 19:07 42.336114 -114.269891 313 36137ft 456kts
09-Aug-18 19:08 42.420510 -114.398655 313 36139ft 457kts
09-Aug-18 19:09 42.504484 -114.527788 312 36139ft 457kts
09-Aug-18 19:10 42.588091 -114.657165 312 36135ft 457kts
09-Aug-18 19:11 42.671496 -114.787180 312 36130ft 457kts
09-Aug-18 19:12 42.755346 -114.917675 312 36131ft 458kts
09-Aug-18 19:13 42.838907 -115.048271 311 36125ft 458kts
09-Aug-18 19:14 42.922219 -115.179353 311 36112ft 458kts
09-Aug-18 19:15 43.005446 -115.310980 311 36093ft 458kts
09-Aug-18 19:16 43.088840 -115.443495 311 36066ft 458kts
09-Aug-18 19:17 43.171689 -115.575751 311 36049ft 458kts
09-Aug-18 19:18 43.254639 -115.708786 310 36044ft 458kts
09-Aug-18 19:19 43.337217 -115.841833 310 36045ft 458kts
09-Aug-18 19:20 43.419874 -115.975112 310 36037ft 458kts
09-Aug-18 19:21 43.502131 -116.109222 310 36026ft 459kts
09-Aug-18 19:22 43.589233 -116.237207 318 36020ft 459kts
09-Aug-18 19:23 43.685271 -116.354316 318 36009ft 459kts
09-Aug-18 19:24 43.780850 -116.471871 318 36002ft 460kts
09-Aug-18 19:25 43.876703 -116.589576 318 35993ft 460kts
09-Aug-18 19:26 43.972439 -116.707822 317 35993ft 462kts
09-Aug-18 19:27 44.068117 -116.826734 317 35987ft 460kts
09-Aug-18 19:28 44.163563 -116.945971 317 35987ft 461kts
09-Aug-18 19:29 44.258826 -117.065540 317 35998ft 462kts
09-Aug-18 19:30 44.354317 -117.185947 316 36016ft 463kts
09-Aug-18 19:31 44.449817 -117.306927 316 36037ft 464kts
09-Aug-18 19:32 44.545299 -117.428447 316 36055ft 464kts
09-Aug-18 19:33 44.641002 -117.550449 316 36065ft 464kts
09-Aug-18 19:34 44.736237 -117.672848 315 36068ft 464kts
09-Aug-18 19:35 44.826999 -117.800862 300 36067ft 460kts
09-Aug-18 19:36 44.862339 -117.971823 278 36066ft 455kts
09-Aug-18 19:37 44.884714 -118.147115 277 36059ft 455kts
09-Aug-18 19:38 44.907205 -118.323243 278 36055ft 455kts
09-Aug-18 19:39 44.929920 -118.498511 277 36040ft 455kts
09-Aug-18 19:40 44.952167 -118.674591 277 36058ft 455kts
09-Aug-18 19:41 44.974042 -118.850695 277 36053ft 455kts
09-Aug-18 19:42 44.995574 -119.026537 276 36005ft 455kts
09-Aug-18 19:43 45.016858 -119.202800 276 35972ft 455kts
09-Aug-18 19:44 45.037819 -119.378744 276 35963ft 455kts
09-Aug-18 19:45 45.058563 -119.555304 275 35951ft 454kts
09-Aug-18 19:46 45.078982 -119.731518 275 35545ft 452kts
09-Aug-18 19:47 45.099090 -119.907503 275 32685ft 455kts
09-Aug-18 19:48 45.119019 -120.083622 275 30257ft 448kts
09-Aug-18 19:49 45.138340 -120.255369 273 28141ft 435kts
09-Aug-18 19:50 45.156424 -120.422625 274 26076ft 424kts
09-Aug-18 19:51 45.190345 -120.581997 293 24000ft 426kts
09-Aug-18 19:52 45.247228 -120.728221 295 21931ft 418kts
09-Aug-18 19:53 45.302229 -120.870833 294 19897ft 407kts
09-Aug-18 19:54 45.355250 -121.010272 294 17912ft 386kts
09-Aug-18 19:55 45.404656 -121.140357 294 16250ft 373kts
09-Aug-18 19:56 45.443469 -121.274288 281 14579ft 361kts
09-Aug-18 19:57 45.469375 -121.409686 281 13029ft 344kts
09-Aug-18 19:58 45.494907 -121.538148 281 11674ft 330kts
09-Aug-18 19:59 45.519052 -121.661701 283 10410ft 315kts
09-Aug-18 20:00 45.532164 -121.775729 270 9871ft 267kts
09-Aug-18 20:01 45.535285 -121.872891 271 9461ft 229kts
09-Aug-18 20:02 45.538711 -121.968118 274 7570ft 249kts
09-Aug-18 20:03 45.533323 -122.061263 239 6527ft 222kts
09-Aug-18 20:05 45.484555 -122.157356 235 5509ft 192kts
09-Aug-18 20:06 45.465607 -122.258881 292 3791ft 181kts
09-Aug-18 20:07 45.488054 -122.322099 298 3713ft 180kts
09-Aug-18 20:08 45.512903 -122.385928 299 2850ft 176kts
09-Aug-18 20:09 45.534296 -122.440585 299 2006ft 148kts
09-Aug-18 20:10 45.554457 -122.492203 299 1224ft 149kts
09-Aug-18 20:11 45.574488 -122.543525 299 437ft 144kts
09-Aug-18 20:12 45.590924 -122.585587 298 26ft 58kts
09-Aug-18 20:13 45.592055 -122.589849 273 26ft 0kts
09-Aug-18 20:14 45.592055 -122.589851 273 26ft 0kts
09-Aug-18 20:15 45.592154 -122.591876 272 26ft 15kts
09-Aug-18 20:16 45.591787 -122.593865 179 26ft 4kts
09-Aug-18 20:17 45.591264 -122.594127 205 26ft 0kts
09-Aug-18 20:18 45.591264 -122.594127 205 26ft 0kts
09-Aug-18 20:19 45.591264 -122.594127 205 26ft 0kts
09-Aug-18 20:20 45.591264 -122.594127 205 26ft 0kts
09-Aug-18 20:21 45.591264 -122.594127 205 26ft 0kts
09-Aug-18 20:22 45.591264 -122.594127 205 26ft 0kts

Navigation Log

Ident Type
Flight plan parsing failed, navigation log unavailable